createdAt,value
2019-05-13T00:01:43.450Z,17.70
2019-05-13T00:04:14.153Z,17.80
2019-05-13T00:06:53.564Z,17.80
2019-05-13T00:09:15.427Z,17.80
2019-05-13T00:11:45.485Z,17.80
2019-05-13T00:14:14.471Z,17.80
2019-05-13T00:16:44.859Z,17.80
2019-05-13T00:19:14.362Z,17.90
2019-05-13T00:21:44.482Z,17.80
2019-05-13T00:24:13.989Z,17.90
2019-05-13T00:26:44.509Z,17.90
2019-05-13T00:29:14.207Z,17.90
2019-05-13T00:31:45.700Z,17.90
2019-05-13T00:34:14.682Z,17.80
2019-05-13T00:36:44.536Z,17.80
2019-05-13T00:39:15.342Z,17.80
2019-05-13T00:41:44.568Z,17.80
2019-05-13T00:44:14.232Z,17.80
2019-05-13T00:46:44.103Z,17.80
2019-05-13T00:49:13.470Z,17.70
2019-05-13T00:51:44.437Z,17.80
2019-05-13T00:54:13.431Z,17.80
2019-05-13T00:56:43.578Z,17.70
2019-05-13T00:59:14.189Z,17.80
2019-05-13T01:01:44.046Z,17.80
2019-05-13T01:04:14.367Z,17.90
2019-05-13T01:06:44.481Z,17.90
2019-05-13T01:09:14.527Z,17.80
2019-05-13T01:11:44.628Z,17.80
2019-05-13T01:14:14.282Z,17.80
2019-05-13T01:16:44.338Z,17.90
2019-05-13T01:19:14.336Z,17.90
2019-05-13T01:21:43.649Z,17.80
2019-05-13T01:24:14.476Z,17.80
2019-05-13T01:26:43.817Z,17.80
2019-05-13T01:29:13.488Z,17.80
2019-05-13T01:31:44.151Z,17.70
2019-05-13T01:34:14.271Z,17.70
2019-05-13T01:36:44.777Z,17.70
2019-05-13T01:39:14.039Z,17.60
2019-05-13T01:41:43.860Z,17.70
2019-05-13T01:44:13.978Z,17.70
2019-05-13T01:46:43.673Z,17.60
2019-05-13T01:49:13.673Z,17.60
2019-05-13T01:51:44.028Z,17.60
2019-05-13T01:54:14.284Z,17.60
2019-05-13T01:56:44.101Z,17.60
2019-05-13T01:59:15.202Z,17.50
2019-05-13T02:01:44.293Z,17.50
2019-05-13T02:04:14.301Z,17.50
2019-05-13T02:06:44.312Z,17.50
2019-05-13T02:09:14.258Z,17.50
2019-05-13T02:11:44.592Z,17.50
2019-05-13T02:14:14.068Z,17.50
2019-05-13T02:16:44.527Z,17.40
2019-05-13T02:19:14.284Z,17.50
2019-05-13T02:21:43.918Z,17.50
2019-05-13T02:24:14.442Z,17.50
2019-05-13T02:26:43.857Z,17.50
2019-05-13T02:29:14.342Z,17.50
2019-05-13T02:31:51.597Z,17.40
2019-05-13T02:34:14.126Z,17.40
2019-05-13T02:36:44.025Z,17.40
2019-05-13T02:39:13.269Z,17.40
2019-05-13T02:41:43.123Z,17.40
2019-05-13T02:44:12.630Z,17.40
2019-05-13T02:46:44.371Z,17.40
2019-05-13T02:49:12.370Z,17.40
2019-05-13T02:51:42.965Z,17.40
2019-05-13T02:54:13.261Z,17.40
2019-05-13T02:56:42.520Z,17.50
2019-05-13T02:59:13.225Z,17.40
2019-05-13T03:01:43.421Z,17.40
2019-05-13T03:04:13.147Z,17.30
2019-05-13T03:06:43.574Z,17.30
2019-05-13T03:09:13.035Z,17.40
2019-05-13T03:11:42.559Z,17.40
2019-05-13T03:14:13.106Z,17.40
2019-05-13T03:16:52.490Z,17.40
2019-05-13T03:19:22.473Z,17.40
2019-05-13T03:21:52.477Z,17.40
2019-05-13T03:24:22.896Z,17.40
2019-05-13T03:26:53.279Z,17.40
2019-05-13T03:29:22.639Z,17.50
2019-05-13T03:31:55.838Z,17.40
2019-05-13T03:34:26.772Z,17.50
2019-05-13T03:36:57.170Z,17.40
2019-05-13T03:39:24.362Z,17.40
2019-05-13T03:41:53.406Z,17.40
2019-05-13T03:44:23.729Z,17.40
2019-05-13T03:46:53.244Z,17.40
2019-05-13T03:49:23.230Z,17.40
2019-05-13T03:51:53.415Z,17.40
2019-05-13T03:54:23.807Z,17.40
2019-05-13T03:56:53.152Z,17.40
2019-05-13T03:59:22.732Z,17.40
2019-05-13T04:01:52.601Z,17.50
2019-05-13T04:04:23.427Z,17.40
2019-05-13T04:06:53.184Z,17.40
2019-05-13T04:09:30.162Z,17.40
2019-05-13T04:11:52.947Z,17.40
2019-05-13T04:14:23.236Z,17.40
2019-05-13T04:16:53.293Z,17.40
2019-05-13T04:19:23.459Z,17.40
2019-05-13T04:21:52.963Z,17.40
2019-05-13T04:24:23.144Z,17.40
2019-05-13T04:26:53.314Z,17.40
2019-05-13T04:29:23.470Z,17.40
2019-05-13T04:31:53.327Z,17.40
2019-05-13T04:34:23.068Z,17.40
2019-05-13T04:36:52.289Z,17.40
2019-05-13T04:39:40.498Z,17.50
2019-05-13T04:41:52.873Z,17.50
2019-05-13T04:44:24.018Z,17.40
2019-05-13T04:46:52.684Z,17.40
2019-05-13T04:49:23.412Z,17.50
2019-05-13T04:51:52.653Z,17.50
2019-05-13T04:54:22.552Z,17.50
2019-05-13T04:56:52.719Z,17.50
2019-05-13T04:59:22.885Z,17.50
2019-05-13T05:02:04.938Z,17.50
2019-05-13T05:04:52.479Z,17.60
2019-05-13T05:07:32.703Z,17.60
2019-05-13T05:10:30.280Z,17.60
2019-05-13T05:13:07.001Z,17.50
2019-05-13T05:15:41.773Z,17.60
2019-05-13T05:18:15.258Z,17.60
2019-05-13T05:21:04.072Z,17.60
2019-05-13T05:23:51.603Z,17.60
2019-05-13T05:26:38.666Z,17.60
2019-05-13T05:29:11.311Z,17.60
2019-05-13T05:31:47.538Z,17.60
2019-05-13T05:34:18.145Z,17.60
2019-05-13T05:37:07.065Z,17.60
2019-05-13T05:39:36.113Z,17.60
2019-05-13T05:42:05.102Z,17.60
2019-05-13T05:44:34.430Z,17.60
2019-05-13T05:47:03.831Z,17.70
2019-05-13T05:49:32.816Z,17.70
2019-05-13T05:52:02.597Z,17.70
2019-05-13T05:54:32.058Z,17.70
2019-05-13T05:57:02.373Z,17.70
2019-05-13T05:59:31.988Z,17.70
2019-05-13T06:02:01.956Z,17.70
2019-05-13T06:04:32.444Z,17.70
2019-05-13T06:07:03.226Z,17.80
2019-05-13T06:09:32.509Z,17.70
2019-05-13T06:12:01.841Z,17.80
2019-05-13T06:14:32.773Z,17.70
2019-05-13T06:17:02.732Z,17.70
2019-05-13T06:19:32.157Z,17.70
2019-05-13T06:22:02.175Z,17.70
2019-05-13T06:24:31.794Z,17.70
2019-05-13T06:27:01.584Z,17.70
2019-05-13T06:29:31.659Z,17.80
2019-05-13T06:32:15.101Z,17.80
2019-05-13T06:34:32.850Z,17.80
2019-05-13T06:37:02.434Z,17.80
2019-05-13T06:39:31.878Z,17.90
2019-05-13T06:42:02.776Z,17.90
2019-05-13T06:44:31.892Z,17.90
2019-05-13T06:47:02.421Z,17.90
2019-05-13T06:49:32.409Z,17.90
2019-05-13T06:52:02.093Z,18.00
2019-05-13T06:54:33.039Z,18.00
2019-05-13T06:57:05.102Z,18.00
2019-05-13T06:59:34.127Z,17.90
2019-05-13T07:02:04.326Z,17.70
2019-05-13T07:04:34.170Z,17.50
2019-05-13T07:07:12.234Z,17.50
2019-05-13T07:09:35.482Z,17.50
2019-05-13T07:12:05.317Z,17.50
2019-05-13T07:14:38.206Z,17.50
2019-05-13T07:17:08.037Z,17.60
2019-05-13T07:19:37.946Z,17.60
2019-05-13T07:22:07.798Z,17.70
2019-05-13T07:24:37.556Z,17.80
2019-05-13T07:27:07.230Z,17.80
2019-05-13T07:29:37.079Z,17.70
2019-05-13T07:32:06.246Z,17.80
2019-05-13T07:34:35.914Z,17.70
2019-05-13T07:37:05.757Z,17.80
2019-05-13T07:39:36.742Z,17.90
2019-05-13T07:42:06.594Z,17.90
2019-05-13T07:44:36.474Z,17.80
2019-05-13T07:47:06.345Z,17.70
2019-05-13T07:49:36.190Z,17.70
2019-05-13T07:52:06.029Z,17.80
2019-05-13T07:54:35.872Z,17.80
2019-05-13T07:57:05.710Z,17.80
2019-05-13T07:59:35.559Z,17.80
2019-05-13T08:02:06.481Z,17.80
2019-05-13T08:04:36.327Z,17.80
2019-05-13T08:07:06.169Z,17.80
2019-05-13T08:09:36.085Z,17.80
2019-05-13T08:12:10.469Z,17.90
2019-05-13T08:14:37.386Z,17.90
2019-05-13T08:17:07.231Z,17.90
2019-05-13T08:19:37.079Z,17.80
2019-05-13T08:22:07.339Z,17.80
2019-05-13T08:24:37.186Z,17.90
2019-05-13T08:27:07.030Z,18.00
2019-05-13T08:29:36.878Z,18.00
2019-05-13T08:32:06.739Z,18.00
2019-05-13T08:34:36.587Z,18.00
2019-05-13T08:37:06.422Z,18.20
2019-05-13T08:39:38.603Z,18.20
2019-05-13T08:42:16.151Z,18.30
2019-05-13T08:44:41.677Z,18.40
2019-05-13T08:47:12.216Z,18.50
2019-05-13T08:49:42.280Z,18.60
2019-05-13T08:52:12.344Z,18.80
2019-05-13T08:54:42.187Z,18.80
2019-05-13T08:57:12.096Z,19.00
2019-05-13T08:59:42.383Z,19.20
2019-05-13T09:02:12.331Z,19.40
2019-05-13T09:04:42.443Z,19.50
2019-05-13T09:07:12.610Z,19.60
2019-05-13T09:09:42.462Z,19.60
2019-05-13T09:12:28.154Z,19.60
2019-05-13T09:14:43.794Z,19.70
2019-05-13T09:17:13.650Z,19.70
2019-05-13T09:19:43.494Z,19.70
2019-05-13T09:22:13.339Z,19.80
2019-05-13T09:24:43.188Z,19.80
2019-05-13T09:27:13.121Z,19.70
2019-05-13T09:29:43.012Z,19.60
2019-05-13T09:32:12.921Z,19.70
2019-05-13T09:34:42.771Z,19.70
2019-05-13T09:37:12.990Z,19.60
2019-05-13T09:39:43.910Z,19.50
2019-05-13T09:42:13.777Z,19.50
2019-05-13T09:44:43.630Z,19.50
2019-05-13T09:47:13.466Z,19.50
2019-05-13T09:49:44.781Z,19.50
2019-05-13T09:52:14.639Z,19.60
2019-05-13T09:54:44.499Z,19.60
2019-05-13T09:57:14.337Z,19.60
2019-05-13T09:59:44.221Z,19.60
2019-05-13T10:02:15.680Z,19.60
2019-05-13T10:04:45.537Z,19.60
2019-05-13T10:07:15.373Z,19.60
2019-05-13T10:09:48.254Z,19.70
2019-05-13T10:12:17.110Z,19.70
2019-05-13T10:14:46.963Z,19.70
2019-05-13T10:17:16.806Z,19.70
2019-05-13T10:19:46.730Z,19.80
2019-05-13T10:22:16.580Z,19.70
2019-05-13T10:24:46.424Z,19.70
2019-05-13T10:27:18.872Z,19.60
2019-05-13T10:29:47.762Z,19.60
2019-05-13T10:32:17.822Z,19.70
2019-05-13T10:34:47.675Z,19.60
2019-05-13T10:37:18.915Z,19.60
2019-05-13T10:39:48.779Z,19.70
2019-05-13T10:42:18.619Z,19.80
2019-05-13T10:44:48.475Z,19.80
2019-05-13T10:47:18.328Z,19.80
2019-05-13T10:49:48.182Z,19.80
2019-05-13T10:52:18.040Z,19.80
2019-05-13T10:54:47.893Z,19.80
2019-05-13T10:57:17.737Z,19.80
2019-05-13T10:59:47.590Z,19.80
2019-05-13T11:02:17.425Z,19.80
2019-05-13T11:04:47.283Z,19.70
2019-05-13T11:07:17.130Z,19.70
2019-05-13T11:09:46.989Z,19.70
2019-05-13T11:12:16.845Z,19.70
2019-05-13T11:14:50.625Z,19.80
2019-05-13T11:17:25.695Z,19.80
2019-05-13T11:19:51.770Z,19.90
2019-05-13T11:22:22.521Z,19.80
2019-05-13T11:24:52.573Z,19.80
2019-05-13T11:27:23.547Z,19.80
2019-05-13T11:29:53.481Z,19.90
2019-05-13T11:32:23.355Z,20.00
2019-05-13T11:34:53.350Z,20.00
2019-05-13T11:37:23.462Z,20.00
2019-05-13T11:39:53.418Z,20.10
2019-05-13T11:42:23.270Z,20.20
2019-05-13T11:44:53.218Z,20.10
2019-05-13T11:47:22.353Z,20.20
2019-05-13T11:49:52.487Z,20.10
2019-05-13T11:52:22.661Z,20.00
2019-05-13T11:54:54.006Z,19.90
2019-05-13T11:57:23.336Z,19.80
2019-05-13T11:59:53.257Z,19.80
2019-05-13T12:02:23.447Z,19.70
2019-05-13T12:04:54.039Z,19.60
2019-05-13T12:07:23.993Z,19.50
2019-05-13T12:09:54.822Z,19.50
2019-05-13T12:12:30.461Z,19.30
2019-05-13T12:15:22.316Z,19.30
2019-05-13T12:17:27.718Z,19.20
2019-05-13T12:19:57.947Z,19.10
2019-05-13T12:22:27.762Z,19.10
2019-05-13T12:24:57.708Z,19.00
2019-05-13T12:27:27.587Z,19.00
2019-05-13T12:29:57.433Z,19.00
2019-05-13T12:32:27.290Z,19.00
2019-05-13T12:34:58.226Z,19.00
2019-05-13T12:37:28.475Z,19.00
2019-05-13T12:39:58.589Z,18.90
2019-05-13T12:42:28.446Z,18.80
2019-05-13T12:45:08.180Z,18.80
2019-05-13T12:47:29.762Z,18.80
2019-05-13T12:50:02.760Z,18.90
2019-05-13T12:52:32.590Z,19.00
2019-05-13T12:55:03.460Z,19.10
2019-05-13T12:57:33.514Z,19.10
2019-05-13T13:00:03.426Z,19.00
2019-05-13T13:02:33.637Z,19.00
2019-05-13T13:05:09.375Z,18.90
2019-05-13T13:07:41.037Z,18.90
2019-05-13T13:10:06.491Z,19.00
2019-05-13T13:12:36.468Z,19.00
2019-05-13T13:17:40.926Z,19.00
2019-05-13T13:20:14.731Z,19.00
2019-05-13T13:22:41.909Z,19.10
2019-05-13T13:25:13.217Z,19.00
2019-05-13T13:28:10.106Z,19.00
2019-05-13T13:30:15.973Z,19.00
2019-05-13T13:32:46.193Z,19.00
2019-05-13T13:35:16.054Z,19.10
2019-05-13T13:37:46.337Z,19.20
2019-05-13T13:40:28.152Z,19.20
2019-05-13T13:42:52.650Z,19.20
2019-05-13T13:45:22.847Z,19.30
2019-05-13T13:48:02.189Z,19.40
2019-05-13T13:50:24.645Z,19.50
2019-05-13T13:52:54.867Z,19.50
2019-05-13T13:55:25.831Z,19.60
2019-05-13T13:57:56.975Z,19.60
2019-05-13T14:00:38.518Z,19.50
2019-05-13T14:02:58.631Z,19.50
2019-05-13T14:05:28.473Z,19.50
2019-05-13T14:06:50.059Z,19.10
2019-05-13T14:08:01.536Z,19.60
2019-05-13T14:10:31.827Z,19.60
2019-05-13T14:13:04.734Z,19.60
2019-05-13T14:15:34.471Z,19.70
2019-05-13T14:18:04.581Z,19.80
2019-05-13T14:20:34.430Z,19.80
2019-05-13T14:23:04.290Z,19.80
2019-05-13T14:25:34.137Z,19.80
2019-05-13T14:28:04.440Z,19.80
2019-05-13T14:30:34.474Z,19.70
2019-05-13T14:33:04.334Z,19.80
2019-05-13T14:35:34.170Z,19.80
2019-05-13T14:38:04.091Z,19.70
2019-05-13T14:40:33.938Z,19.60
2019-05-13T14:43:03.965Z,19.60
2019-05-13T14:45:33.853Z,19.60
2019-05-13T14:48:03.701Z,19.60
2019-05-13T14:50:33.622Z,19.60
2019-05-13T14:53:03.890Z,19.60
2019-05-13T14:55:33.729Z,19.60
2019-05-13T14:58:03.782Z,19.60
2019-05-13T15:00:33.626Z,19.50
2019-05-13T15:03:03.506Z,19.60
2019-05-13T15:05:33.346Z,19.50
2019-05-13T15:08:03.190Z,19.50
2019-05-13T15:10:33.025Z,19.40
2019-05-13T15:13:03.182Z,19.20
2019-05-13T15:15:33.122Z,19.20
2019-05-13T15:18:02.966Z,19.20
2019-05-13T15:20:33.264Z,19.20
2019-05-13T15:23:04.229Z,19.10
2019-05-13T15:25:34.954Z,19.10
2019-05-13T15:28:04.805Z,19.00
2019-05-13T15:30:34.657Z,18.90
2019-05-13T15:33:04.497Z,18.90
2019-05-13T15:35:34.430Z,18.90
2019-05-13T15:38:04.301Z,18.80
2019-05-13T15:40:34.162Z,18.80
2019-05-13T15:43:04.974Z,18.90
2019-05-13T15:45:34.833Z,18.80
2019-05-13T15:48:04.706Z,18.90
2019-05-13T15:50:34.639Z,18.90
2019-05-13T15:53:04.782Z,18.90
2019-05-13T15:55:34.669Z,19.00
2019-05-13T15:58:04.619Z,18.90
2019-05-13T16:00:34.458Z,19.00
2019-05-13T16:03:04.306Z,18.90
2019-05-13T16:05:34.149Z,18.90
2019-05-13T16:08:03.989Z,18.90
2019-05-13T16:10:33.833Z,18.90
2019-05-13T16:13:04.544Z,18.90
2019-05-13T16:15:34.382Z,18.70
2019-05-13T16:18:04.626Z,18.60
2019-05-13T16:20:36.096Z,18.70
2019-05-13T16:23:05.943Z,18.80
2019-05-13T16:25:35.816Z,18.80
2019-05-13T16:28:05.646Z,18.70
2019-05-13T16:30:35.890Z,18.80
2019-05-13T16:33:05.730Z,18.70
2019-05-13T16:35:35.691Z,18.60
2019-05-13T16:38:05.532Z,18.60
2019-05-13T16:40:36.756Z,18.60
2019-05-13T16:43:06.838Z,18.40
2019-05-13T16:45:37.861Z,18.40
2019-05-13T16:48:07.954Z,18.50
2019-05-13T16:50:37.814Z,18.50
2019-05-13T16:53:07.654Z,18.50
2019-05-13T16:55:38.502Z,18.40
2019-05-13T16:58:08.350Z,18.40
2019-05-13T17:00:38.195Z,18.50
2019-05-13T17:03:08.047Z,18.40
2019-05-13T17:05:37.878Z,18.40
2019-05-13T17:08:07.721Z,18.40
2019-05-13T17:10:38.634Z,18.30
2019-05-13T17:13:08.485Z,18.30
2019-05-13T17:15:38.331Z,18.30
2019-05-13T17:18:11.858Z,18.30
2019-05-13T17:20:41.450Z,18.20
2019-05-13T17:23:12.397Z,18.10
2019-05-13T17:25:42.926Z,18.00
2019-05-13T17:28:13.454Z,18.20
2019-05-13T17:30:44.198Z,18.10
2019-05-13T17:33:14.046Z,18.10
2019-05-13T17:35:43.894Z,18.00
2019-05-13T17:38:14.133Z,17.90
2019-05-13T17:40:49.274Z,17.90
2019-05-13T17:43:15.450Z,17.90
2019-05-13T17:45:45.626Z,17.90
2019-05-13T17:48:25.815Z,17.80
2019-05-13T17:50:47.365Z,17.80
2019-05-13T17:53:17.241Z,17.80
2019-05-13T17:55:47.130Z,17.80
2019-05-13T17:58:16.976Z,17.80
2019-05-13T18:00:46.817Z,17.80
2019-05-13T18:03:16.864Z,17.70
2019-05-13T18:05:47.097Z,17.70
2019-05-13T18:08:16.942Z,17.80
2019-05-13T18:10:47.241Z,17.70
2019-05-13T18:13:17.077Z,17.50
2019-05-13T18:15:46.926Z,17.50
2019-05-13T18:18:16.091Z,17.40
2019-05-13T18:20:45.761Z,17.30
2019-05-13T18:23:15.616Z,17.20
2019-05-13T18:25:45.803Z,17.30
2019-05-13T18:28:27.485Z,17.20
2019-05-13T18:30:47.131Z,17.10
2019-05-13T18:33:16.995Z,17.00
2019-05-13T18:35:47.197Z,17.00
2019-05-13T18:38:17.064Z,17.10
2019-05-13T18:40:46.909Z,17.10
2019-05-13T18:43:16.834Z,17.00
2019-05-13T18:45:46.674Z,16.90
2019-05-13T18:48:16.533Z,16.80
2019-05-13T18:50:46.378Z,16.80
2019-05-13T18:53:16.230Z,16.70
2019-05-13T18:55:46.075Z,16.70
2019-05-13T18:58:15.926Z,16.70
2019-05-13T19:00:45.841Z,16.60
2019-05-13T19:03:15.702Z,16.60
2019-05-13T19:05:45.553Z,16.60
2019-05-13T19:08:15.734Z,16.50
2019-05-13T19:10:44.898Z,16.50
2019-05-13T19:13:13.889Z,16.50
2019-05-13T19:15:43.311Z,16.50
2019-05-13T19:18:12.989Z,16.50
2019-05-13T19:20:42.837Z,16.70
2019-05-13T19:23:13.131Z,17.10
2019-05-13T19:25:42.994Z,17.40
2019-05-13T19:28:12.837Z,17.50
2019-05-13T19:30:42.684Z,17.60
2019-05-13T19:33:12.593Z,17.70
2019-05-13T19:35:42.732Z,17.70
2019-05-13T19:38:12.573Z,17.80
2019-05-13T19:40:42.510Z,17.90
2019-05-13T19:43:12.426Z,18.00
2019-05-13T19:45:42.345Z,17.90
2019-05-13T19:48:12.491Z,17.90
2019-05-13T19:50:42.341Z,17.90
2019-05-13T19:53:12.301Z,17.80
2019-05-13T19:55:42.431Z,17.90
2019-05-13T19:58:12.658Z,17.80
2019-05-13T20:00:42.646Z,17.90
2019-05-13T20:03:12.531Z,17.90
2019-05-13T20:05:42.369Z,17.90
2019-05-13T20:08:12.214Z,17.90
2019-05-13T20:10:42.389Z,17.80
2019-05-13T20:13:12.700Z,17.90
2019-05-13T20:15:42.546Z,17.80
2019-05-13T20:18:12.402Z,17.80
2019-05-13T20:20:42.713Z,17.80
2019-05-13T20:23:12.590Z,17.80
2019-05-13T20:25:42.443Z,17.80
2019-05-13T20:28:12.290Z,17.80
2019-05-13T20:30:45.288Z,17.70
2019-05-13T20:33:13.610Z,17.70
2019-05-13T20:35:43.458Z,17.70
2019-05-13T20:38:13.645Z,17.70
2019-05-13T20:40:43.494Z,17.70
2019-05-13T20:43:13.337Z,17.70
2019-05-13T20:45:43.593Z,17.60
2019-05-13T20:48:13.441Z,17.60
2019-05-13T20:50:43.292Z,17.60
2019-05-13T20:53:13.134Z,17.60
2019-05-13T20:55:42.982Z,17.60
2019-05-13T20:58:13.005Z,17.60
2019-05-13T21:00:43.351Z,17.50
2019-05-13T21:03:13.190Z,17.50
2019-05-13T21:05:43.042Z,17.50
2019-05-13T21:08:12.888Z,17.50
2019-05-13T21:10:42.728Z,17.50
2019-05-13T21:13:12.575Z,17.50
2019-05-13T21:15:42.616Z,17.40
2019-05-13T21:18:15.575Z,17.40
2019-05-13T21:20:45.416Z,17.40
2019-05-13T21:23:15.267Z,17.30
2019-05-13T21:25:45.405Z,17.30
2019-05-13T21:28:15.258Z,17.20
2019-05-13T21:30:45.109Z,17.20
2019-05-13T21:33:14.959Z,17.20
2019-05-13T21:35:44.806Z,17.10
2019-05-13T21:38:14.666Z,17.00
2019-05-13T21:40:44.492Z,17.00
2019-05-13T21:43:14.639Z,17.10
2019-05-13T21:45:44.483Z,17.10
2019-05-13T21:48:14.322Z,17.00
2019-05-13T21:50:44.169Z,17.00
2019-05-13T21:53:14.019Z,17.00
2019-05-13T21:55:43.859Z,17.00
2019-05-13T21:58:14.120Z,17.00
2019-05-13T22:00:45.887Z,16.90
2019-05-13T22:03:15.793Z,17.00
2019-05-13T22:05:45.640Z,16.90
2019-05-13T22:08:15.486Z,16.90
2019-05-13T22:10:45.911Z,16.90
2019-05-13T22:13:15.820Z,16.90
2019-05-13T22:15:46.067Z,16.90
2019-05-13T22:18:15.906Z,16.80
2019-05-13T22:20:50.187Z,16.90
2019-05-13T22:23:17.230Z,16.90
2019-05-13T22:25:47.084Z,16.90
2019-05-13T22:28:16.940Z,16.90
2019-05-13T22:30:46.785Z,16.80
2019-05-13T22:33:16.657Z,16.80
2019-05-13T22:35:46.505Z,16.70
2019-05-13T22:38:16.345Z,16.70
2019-05-13T22:40:46.196Z,16.70
2019-05-13T22:43:16.046Z,16.70
2019-05-13T22:45:45.957Z,16.70
2019-05-13T22:48:15.810Z,16.80
2019-05-13T22:50:46.429Z,16.80
2019-05-13T22:53:16.269Z,16.80
2019-05-13T22:55:46.195Z,16.70
2019-05-13T22:58:16.046Z,16.70
2019-05-13T23:00:45.894Z,16.70
2019-05-13T23:03:17.358Z,16.70
2019-05-13T23:05:47.195Z,16.80
2019-05-13T23:08:17.061Z,16.70
2019-05-13T23:10:46.911Z,16.70
2019-05-13T23:13:16.752Z,16.70
2019-05-13T23:15:46.895Z,16.80
2019-05-13T23:18:17.103Z,16.80
2019-05-13T23:20:46.949Z,16.80
2019-05-13T23:23:16.803Z,16.80
2019-05-13T23:25:46.637Z,16.80
2019-05-13T23:28:16.490Z,16.80
2019-05-13T23:30:46.651Z,16.90
2019-05-13T23:33:16.521Z,16.90
2019-05-13T23:35:46.370Z,16.80
2019-05-13T23:38:16.226Z,16.70
2019-05-13T23:40:46.438Z,16.80
2019-05-13T23:43:16.282Z,16.90
2019-05-13T23:45:46.135Z,16.90
2019-05-13T23:48:15.975Z,16.80
2019-05-13T23:50:45.821Z,16.70
2019-05-13T23:53:15.667Z,16.70
2019-05-13T23:55:45.509Z,16.70
2019-05-13T23:58:15.349Z,16.80
